createdAt,value
2022-12-04T00:00:27.182Z,56.54
2022-12-04T00:01:31.468Z,56.52
2022-12-04T00:02:35.815Z,56.6
2022-12-04T00:03:40.065Z,56.65
2022-12-04T00:04:44.504Z,56.6
2022-12-04T00:05:48.766Z,56.54
2022-12-04T00:07:00.126Z,56.69
2022-12-04T00:08:04.704Z,56.7
2022-12-04T00:09:08.989Z,56.77
2022-12-04T00:10:13.202Z,56.69
2022-12-04T00:11:17.429Z,56.7
2022-12-04T00:12:21.672Z,56.63
2022-12-04T00:13:25.939Z,56.81
2022-12-04T00:14:30.170Z,56.92
2022-12-04T00:15:34.417Z,57.06
2022-12-04T00:16:39.049Z,57.04
2022-12-04T00:17:43.347Z,56.83
2022-12-04T00:18:47.590Z,56.98
2022-12-04T00:19:52.055Z,56.88
2022-12-04T00:20:56.416Z,57.01
2022-12-04T00:22:00.745Z,57.21
2022-12-04T00:23:04.964Z,57.07
2022-12-04T00:24:09.166Z,57.27
2022-12-04T00:25:13.389Z,57.12
2022-12-04T00:26:17.639Z,57.11
2022-12-04T00:27:21.898Z,57.11
2022-12-04T00:28:26.146Z,57.22
2022-12-04T00:29:30.419Z,57.15
2022-12-04T00:30:34.707Z,57.12
2022-12-04T00:31:39.128Z,57.02
2022-12-04T00:32:43.418Z,57.05
2022-12-04T00:33:47.669Z,57.34
2022-12-04T00:34:51.916Z,57.46
2022-12-04T00:35:56.161Z,57.44
2022-12-04T00:37:00.403Z,57.52
2022-12-04T00:38:04.634Z,57.5
2022-12-04T00:39:08.864Z,57.53
2022-12-04T00:40:13.120Z,57.49
2022-12-04T00:41:17.432Z,57.35
2022-12-04T00:42:21.653Z,57.41
2022-12-04T00:43:25.881Z,57.28
2022-12-04T00:44:30.155Z,57.52
2022-12-04T00:45:34.574Z,57.52
2022-12-04T00:46:38.826Z,57.45
2022-12-04T00:47:43.039Z,57.59
2022-12-04T00:48:47.242Z,57.49
2022-12-04T00:49:51.475Z,57.58
2022-12-04T00:50:55.756Z,57.54
2022-12-04T00:51:59.966Z,57.58
2022-12-04T00:53:04.230Z,57.42
2022-12-04T00:54:08.470Z,58.07
2022-12-04T00:55:12.797Z,57.67
2022-12-04T00:56:19.484Z,57.52
2022-12-04T00:57:23.716Z,57.61
2022-12-04T00:58:27.945Z,57.71
2022-12-04T00:59:32.183Z,57.82
2022-12-04T01:00:36.573Z,57.81
2022-12-04T01:01:41.096Z,57.66
2022-12-04T01:02:45.652Z,57.58
2022-12-04T01:03:49.969Z,57.95
2022-12-04T01:04:54.205Z,57.68
2022-12-04T01:05:58.492Z,57.61
2022-12-04T01:07:07.103Z,57.82
2022-12-04T01:08:11.625Z,57.69
2022-12-04T01:09:15.936Z,57.74
2022-12-04T01:10:20.276Z,57.71
2022-12-04T01:11:24.541Z,57.83
2022-12-04T01:12:28.790Z,57.77
2022-12-04T01:13:33.003Z,57.67
2022-12-04T01:14:37.222Z,57.82
2022-12-04T01:15:41.455Z,57.83
2022-12-04T01:16:46.049Z,57.89
2022-12-04T01:17:50.311Z,57.71
2022-12-04T01:18:54.547Z,57.73
2022-12-04T01:19:59.367Z,57.62
2022-12-04T01:21:03.575Z,57.76
2022-12-04T01:22:07.796Z,58.1
2022-12-04T01:23:12.027Z,57.85
2022-12-04T01:24:16.242Z,57.85
2022-12-04T01:25:20.452Z,57.84
2022-12-04T01:26:24.825Z,57.68
2022-12-04T01:27:29.068Z,57.77
2022-12-04T01:28:33.263Z,57.84
2022-12-04T01:29:37.518Z,57.86
2022-12-04T01:30:41.720Z,57.87
2022-12-04T01:31:46.144Z,58.1
2022-12-04T01:32:50.392Z,57.87
2022-12-04T01:33:54.649Z,58.05
2022-12-04T01:34:58.909Z,58.12
2022-12-04T01:36:03.146Z,58.07
2022-12-04T01:37:07.394Z,57.96
2022-12-04T01:38:11.627Z,58.2
2022-12-04T01:39:15.875Z,58.01
2022-12-04T01:40:20.188Z,58.05
2022-12-04T01:41:24.408Z,58.05
2022-12-04T01:42:28.629Z,58.03
2022-12-04T01:43:32.868Z,58.02
2022-12-04T01:44:37.112Z,58.25
2022-12-04T01:45:41.581Z,58.09
2022-12-04T01:46:45.881Z,58.27
2022-12-04T01:47:50.094Z,58.34
2022-12-04T01:48:54.358Z,58.18
2022-12-04T01:49:59.362Z,58.03
2022-12-04T01:51:03.597Z,58.18
2022-12-04T01:52:07.812Z,58.46
2022-12-04T01:53:12.034Z,58.24
2022-12-04T01:54:16.251Z,58.05
2022-12-04T01:55:20.488Z,58.18
2022-12-04T01:56:24.734Z,58.27
2022-12-04T01:57:28.986Z,58.36
2022-12-04T01:58:34.276Z,58.16
2022-12-04T01:59:38.493Z,58.38
2022-12-04T02:00:42.879Z,58.33
2022-12-04T02:01:47.369Z,58.16
2022-12-04T02:02:52.023Z,58.14
2022-12-04T02:03:56.255Z,58.11
2022-12-04T02:05:00.509Z,58.18
2022-12-04T02:06:04.743Z,58.13
2022-12-04T02:07:08.974Z,58.3
2022-12-04T02:08:13.565Z,58.29
2022-12-04T02:09:26.650Z,58.16
2022-12-04T02:10:31.198Z,58.08
2022-12-04T02:11:35.452Z,58.16
2022-12-04T02:12:39.669Z,58.35
2022-12-04T02:13:43.928Z,58.25
2022-12-04T02:14:48.167Z,58.24
2022-12-04T02:15:52.381Z,58.24
2022-12-04T02:16:56.814Z,58.26
2022-12-04T02:18:01.109Z,58.26
2022-12-04T02:19:05.350Z,58.28
2022-12-04T02:20:09.604Z,58.43
2022-12-04T02:21:13.842Z,58.34
2022-12-04T02:22:18.078Z,58.44
2022-12-04T02:23:22.355Z,58.13
2022-12-04T02:24:26.594Z,58.26
2022-12-04T02:25:30.842Z,58.48
2022-12-04T02:26:35.064Z,58.26
2022-12-04T02:27:39.279Z,58.12
2022-12-04T02:28:43.596Z,58.49
2022-12-04T02:29:47.827Z,58.42
2022-12-04T02:30:52.295Z,58.61
2022-12-04T02:31:56.594Z,58.13
2022-12-04T02:33:00.832Z,58.27
2022-12-04T02:34:05.060Z,58.42
2022-12-04T02:35:09.336Z,58.53
2022-12-04T02:36:13.578Z,58.17
2022-12-04T02:37:17.837Z,58.11
2022-12-04T02:38:22.045Z,58.58
2022-12-04T02:39:26.288Z,58.37
2022-12-04T02:40:30.520Z,58.18
2022-12-04T02:41:34.743Z,58.12
2022-12-04T02:42:39.252Z,58.36
2022-12-04T02:43:43.483Z,58.37
2022-12-04T02:44:47.733Z,58.05
2022-12-04T02:45:52.228Z,58.27
2022-12-04T02:46:56.489Z,58.32
2022-12-04T02:48:00.713Z,58.38
2022-12-04T02:49:04.950Z,58.29
2022-12-04T02:50:09.233Z,58.31
2022-12-04T02:51:13.537Z,58.26
2022-12-04T02:52:17.802Z,58.69
2022-12-04T02:53:22.010Z,58.27
2022-12-04T02:54:26.244Z,58.21
2022-12-04T02:55:30.484Z,58.37
2022-12-04T02:56:34.680Z,58.35
2022-12-04T02:57:38.904Z,58.29
2022-12-04T02:58:43.116Z,58.33
2022-12-04T02:59:47.382Z,58.74
2022-12-04T03:00:51.760Z,58.99
2022-12-04T03:01:56.464Z,58.41
2022-12-04T03:03:01.071Z,58.59
2022-12-04T03:04:05.349Z,58.29
2022-12-04T03:05:09.592Z,58.71
2022-12-04T03:06:13.838Z,58.64
2022-12-04T03:07:18.099Z,58.37
2022-12-04T03:08:22.488Z,58.43
2022-12-04T03:09:26.721Z,58.52
2022-12-04T03:10:30.962Z,58.43
2022-12-04T03:11:35.183Z,58.3
2022-12-04T03:12:39.443Z,58.25
2022-12-04T03:13:43.659Z,58.29
2022-12-04T03:14:47.876Z,58.72
2022-12-04T03:15:52.100Z,58.53
2022-12-04T03:16:56.656Z,58.58
2022-12-04T03:18:00.948Z,58.95
2022-12-04T03:19:05.190Z,58.73
2022-12-04T03:20:09.433Z,58.67
2022-12-04T03:21:13.690Z,58.62
2022-12-04T03:22:17.909Z,58.46
2022-12-04T03:23:24.409Z,58.54
2022-12-04T03:24:28.680Z,58.6
2022-12-04T03:25:32.939Z,58.82
2022-12-04T03:26:37.181Z,58.58
2022-12-04T03:27:41.467Z,58.64
2022-12-04T03:28:45.676Z,58.67
2022-12-04T03:29:49.924Z,59.04
2022-12-04T03:30:54.337Z,58.63
2022-12-04T03:31:58.591Z,58.58
2022-12-04T03:33:02.813Z,58.48
2022-12-04T03:34:07.062Z,58.78
2022-12-04T03:35:11.275Z,58.91
2022-12-04T03:36:15.515Z,58.7
2022-12-04T03:37:19.740Z,58.62
2022-12-04T03:38:23.982Z,58.82
2022-12-04T03:39:29.228Z,58.9
2022-12-04T03:40:33.440Z,58.55
2022-12-04T03:41:37.721Z,58.54
2022-12-04T03:42:41.958Z,58.61
2022-12-04T03:43:46.171Z,58.71
2022-12-04T03:44:51.429Z,58.5
2022-12-04T03:45:55.952Z,58.71
2022-12-04T03:47:00.286Z,58.6
2022-12-04T03:48:04.520Z,58.55
2022-12-04T03:49:08.765Z,58.72
2022-12-04T03:50:13.035Z,58.7
2022-12-04T03:51:17.244Z,58.49
2022-12-04T03:52:21.521Z,58.51
2022-12-04T03:53:25.736Z,58.57
2022-12-04T03:54:29.963Z,58.58
2022-12-04T03:55:34.197Z,58.54
2022-12-04T03:56:38.427Z,58.53
2022-12-04T03:57:42.669Z,58.9
2022-12-04T03:58:46.880Z,58.53
2022-12-04T03:59:58.205Z,58.59
2022-12-04T04:01:02.908Z,58.59
2022-12-04T04:02:07.506Z,58.59
2022-12-04T04:03:11.943Z,58.53
2022-12-04T04:04:16.198Z,58.77
2022-12-04T04:05:21.460Z,58.58
2022-12-04T04:06:26.084Z,58.81
2022-12-04T04:07:37.252Z,58.83
2022-12-04T04:08:41.485Z,58.9
2022-12-04T04:09:45.738Z,58.89
2022-12-04T04:10:49.954Z,58.63
2022-12-04T04:11:54.186Z,58.61
2022-12-04T04:12:58.409Z,58.79
2022-12-04T04:14:02.623Z,58.83
2022-12-04T04:15:06.855Z,59.2
2022-12-04T04:16:11.356Z,59.04
2022-12-04T04:17:15.687Z,58.95
2022-12-04T04:18:19.909Z,59.18
2022-12-04T04:19:24.170Z,59.13
2022-12-04T04:20:28.416Z,59.34
2022-12-04T04:21:32.636Z,58.92
2022-12-04T04:22:36.894Z,59.23
2022-12-04T04:23:41.186Z,58.73
2022-12-04T04:24:45.410Z,58.57
2022-12-04T04:25:49.648Z,58.75
2022-12-04T04:26:53.860Z,58.85
2022-12-04T04:27:58.117Z,58.72
2022-12-04T04:29:02.358Z,58.83
2022-12-04T04:30:06.606Z,58.69
2022-12-04T04:31:11.056Z,59.31
2022-12-04T04:32:15.287Z,59.07
2022-12-04T04:33:19.519Z,58.66
2022-12-04T04:34:23.764Z,58.62
2022-12-04T04:35:28.010Z,58.89
2022-12-04T04:36:32.429Z,58.71
2022-12-04T04:37:36.672Z,59.31
2022-12-04T04:38:40.902Z,59.22
2022-12-04T04:39:45.151Z,59.47
2022-12-04T04:40:49.375Z,59.47
2022-12-04T04:41:53.630Z,58.81
2022-12-04T04:42:57.854Z,58.92
2022-12-04T04:44:02.083Z,59.36
2022-12-04T04:45:06.304Z,59.16
2022-12-04T04:46:10.622Z,59.08
2022-12-04T04:47:14.901Z,59.11
2022-12-04T04:48:19.137Z,59.21
2022-12-04T04:49:23.341Z,58.88
2022-12-04T04:50:27.585Z,58.96
2022-12-04T04:51:31.790Z,59.2
2022-12-04T04:52:36.028Z,59
2022-12-04T04:53:40.235Z,59.42
2022-12-04T04:54:44.477Z,59.03
2022-12-04T04:55:48.712Z,59.27
2022-12-04T04:56:52.939Z,59.48
2022-12-04T04:57:57.171Z,59.21
2022-12-04T04:59:01.404Z,59.55
2022-12-04T05:00:05.621Z,59.45
2022-12-04T05:01:09.852Z,59.28
2022-12-04T05:02:14.318Z,59.27
2022-12-04T05:03:19.013Z,59.19
2022-12-04T05:04:23.304Z,59.33
2022-12-04T05:05:27.535Z,59.19
2022-12-04T05:06:31.766Z,59
2022-12-04T05:07:36.226Z,58.67
2022-12-04T05:08:40.481Z,58.82
2022-12-04T05:09:44.719Z,59.16
2022-12-04T05:10:48.966Z,58.58
2022-12-04T05:11:53.189Z,58.25
2022-12-04T05:12:57.422Z,57.95
2022-12-04T05:14:01.645Z,57.59
2022-12-04T05:15:05.883Z,57.29
2022-12-04T05:16:10.404Z,57.01
2022-12-04T05:17:15.084Z,56.74
2022-12-04T05:18:19.327Z,56.6
2022-12-04T05:19:23.561Z,56.47
2022-12-04T05:20:27.786Z,56.29
2022-12-04T05:21:32.035Z,56.17
2022-12-04T05:22:36.245Z,56.05
2022-12-04T05:23:40.596Z,55.98
2022-12-04T05:24:44.889Z,55.93
2022-12-04T05:25:49.114Z,55.89
2022-12-04T05:26:53.358Z,55.86
2022-12-04T05:27:57.711Z,55.81
2022-12-04T05:29:01.945Z,55.75
2022-12-04T05:30:06.177Z,55.65
2022-12-04T05:31:10.712Z,55.71
2022-12-04T05:32:14.978Z,55.57
2022-12-04T05:33:19.200Z,55.55
2022-12-04T05:34:23.419Z,55.53
2022-12-04T05:35:29.911Z,55.5
2022-12-04T05:36:34.139Z,55.45
2022-12-04T05:37:38.398Z,55.36
2022-12-04T05:38:42.629Z,55.29
2022-12-04T05:39:46.838Z,55.28
2022-12-04T05:40:51.047Z,55.35
2022-12-04T05:41:55.269Z,55.34
2022-12-04T05:42:59.488Z,55.31
2022-12-04T05:44:03.691Z,55.35
2022-12-04T05:45:07.921Z,55.24
2022-12-04T05:46:12.389Z,55.26
2022-12-04T05:47:16.630Z,55.33
2022-12-04T05:48:20.858Z,55.33
2022-12-04T05:49:25.079Z,55.34
2022-12-04T05:50:29.294Z,55.54
2022-12-04T05:51:33.501Z,55.48
2022-12-04T05:52:37.750Z,55.48
2022-12-04T05:53:41.975Z,55.46
2022-12-04T05:54:46.275Z,55.41
2022-12-04T05:55:50.481Z,55.41
2022-12-04T05:56:54.715Z,55.39
2022-12-04T05:57:58.962Z,55.43
2022-12-04T05:59:03.187Z,55.44
2022-12-04T06:00:08.430Z,55.38
2022-12-04T06:01:12.741Z,55.45
2022-12-04T06:02:17.239Z,55.78
2022-12-04T06:03:21.669Z,55.62
2022-12-04T06:04:25.928Z,55.67
2022-12-04T06:05:30.140Z,55.74
2022-12-04T06:06:34.387Z,55.94
2022-12-04T06:07:38.823Z,55.96
2022-12-04T06:08:43.117Z,56.1
2022-12-04T06:09:47.344Z,56.11
2022-12-04T06:10:51.568Z,56.18
2022-12-04T06:11:55.797Z,56.34
2022-12-04T06:13:00.053Z,56.6
2022-12-04T06:14:04.288Z,56.54
2022-12-04T06:15:08.556Z,56.57
2022-12-04T06:16:12.950Z,56.87
2022-12-04T06:17:17.200Z,57.03
2022-12-04T06:18:21.474Z,57.03
2022-12-04T06:19:25.717Z,57.03
2022-12-04T06:20:30.296Z,57.19
2022-12-04T06:21:34.575Z,57.4
2022-12-04T06:22:38.797Z,57.4
2022-12-04T06:23:43.039Z,57.24
2022-12-04T06:24:47.467Z,57.21
2022-12-04T06:25:51.685Z,57.37
2022-12-04T06:27:29.691Z,57.3
2022-12-04T06:28:33.952Z,57.36
2022-12-04T06:29:38.159Z,57.3
2022-12-04T06:30:42.401Z,57.48
2022-12-04T06:31:46.901Z,57.33
2022-12-04T06:32:51.181Z,57.76
2022-12-04T06:33:55.469Z,57.78
2022-12-04T06:34:59.700Z,57.89
2022-12-04T06:36:03.962Z,57.76
2022-12-04T06:37:11.229Z,57.92
2022-12-04T06:38:15.505Z,57.91
2022-12-04T06:39:21.150Z,57.73
2022-12-04T06:40:25.373Z,57.75
2022-12-04T06:41:29.600Z,57.86
2022-12-04T06:42:33.852Z,57.79
2022-12-04T06:43:38.081Z,57.45
2022-12-04T06:44:42.300Z,57.54
2022-12-04T06:45:46.785Z,57.5
2022-12-04T06:46:54.640Z,57.55
2022-12-04T06:47:59.075Z,57.23
2022-12-04T06:49:03.291Z,56.98
2022-12-04T06:50:08.806Z,56.57
2022-12-04T06:51:13.037Z,56.32
2022-12-04T06:52:17.261Z,56.41
2022-12-04T06:53:21.510Z,56.46
2022-12-04T06:54:25.738Z,56.6
2022-12-04T06:55:29.962Z,56.53
2022-12-04T06:56:34.191Z,56.62
2022-12-04T06:57:38.403Z,56.65
2022-12-04T06:58:42.647Z,56.65
2022-12-04T06:59:47.159Z,56.61
2022-12-04T07:00:51.673Z,56.66
2022-12-04T07:01:56.283Z,56.71
2022-12-04T07:03:00.562Z,56.65
2022-12-04T07:04:05.033Z,56.65
2022-12-04T07:05:09.264Z,56.49
2022-12-04T07:06:13.482Z,56.16
2022-12-04T07:07:17.697Z,55.41
2022-12-04T07:08:23.025Z,55.29
2022-12-04T07:09:27.245Z,55.24
2022-12-04T07:10:31.529Z,55.16
2022-12-04T07:11:35.747Z,55.32
2022-12-04T07:12:40.032Z,55.23
2022-12-04T07:13:44.253Z,55.16
2022-12-04T07:14:48.519Z,55.18
2022-12-04T07:15:52.739Z,55.17
2022-12-04T07:16:57.223Z,55.13
2022-12-04T07:18:01.522Z,55.24
2022-12-04T07:19:05.738Z,55.31
2022-12-04T07:20:09.970Z,55.36
2022-12-04T07:21:14.242Z,55.28
2022-12-04T07:22:18.540Z,55.3
2022-12-04T07:23:23.035Z,55.32
2022-12-04T07:24:27.245Z,55.33
2022-12-04T07:25:31.512Z,55.3
2022-12-04T07:26:35.751Z,55.36
2022-12-04T07:27:40.010Z,55.38
2022-12-04T07:28:44.259Z,55.35
2022-12-04T07:29:48.501Z,55.35
2022-12-04T07:30:52.728Z,55.3
2022-12-04T07:31:57.277Z,55.33
2022-12-04T07:33:01.569Z,55.26
2022-12-04T07:34:05.794Z,55.13
2022-12-04T07:35:10.038Z,54.97
2022-12-04T07:36:17.282Z,54.8
2022-12-04T07:37:21.517Z,54.56
2022-12-04T07:38:25.901Z,54.38
2022-12-04T07:39:30.155Z,54.25
2022-12-04T07:40:34.396Z,54.11
2022-12-04T07:41:38.625Z,54.07
2022-12-04T07:42:42.871Z,53.95
2022-12-04T07:43:47.088Z,53.88
2022-12-04T07:44:51.351Z,53.92
2022-12-04T07:45:55.880Z,53.85
2022-12-04T07:47:00.097Z,53.95
2022-12-04T07:48:04.393Z,53.91
2022-12-04T07:49:08.599Z,53.84
2022-12-04T07:50:12.862Z,53.88
2022-12-04T07:51:17.099Z,53.97
2022-12-04T07:52:21.329Z,53.99
2022-12-04T07:53:25.590Z,54.12
2022-12-04T07:54:29.820Z,54.13
2022-12-04T07:55:34.085Z,54.15
2022-12-04T07:56:38.308Z,54.25
2022-12-04T07:57:42.552Z,54.22
2022-12-04T07:58:46.787Z,54.21
2022-12-04T07:59:50.991Z,54.3
2022-12-04T08:00:55.451Z,54.46
2022-12-04T08:02:00.056Z,54.44
2022-12-04T08:03:04.346Z,54.58
2022-12-04T08:04:08.795Z,54.52
2022-12-04T08:05:13.051Z,54.62
2022-12-04T08:06:17.329Z,54.68
2022-12-04T08:07:21.552Z,54.77
2022-12-04T08:08:25.766Z,54.79
2022-12-04T08:09:29.968Z,54.83
2022-12-04T08:10:34.233Z,54.93
2022-12-04T08:11:38.504Z,55
2022-12-04T08:12:42.726Z,55.05
2022-12-04T08:13:46.974Z,55.07
2022-12-04T08:14:51.188Z,55.13
2022-12-04T08:15:55.392Z,55.07
2022-12-04T08:16:59.892Z,55.12
2022-12-04T08:18:04.146Z,55.12
2022-12-04T08:19:08.366Z,55.23
2022-12-04T08:20:12.598Z,55.24
2022-12-04T08:21:16.816Z,55.26
2022-12-04T08:22:26.801Z,55.14
2022-12-04T08:23:31.008Z,55.23
2022-12-04T08:24:35.252Z,55.31
2022-12-04T08:25:39.554Z,55.41
2022-12-04T08:26:43.787Z,55.35
2022-12-04T08:27:49.760Z,55.31
2022-12-04T08:28:53.975Z,55.43
2022-12-04T08:29:58.899Z,55.41
2022-12-04T08:31:03.279Z,55.45
2022-12-04T08:32:07.533Z,55.46
2022-12-04T08:33:11.748Z,55.49
2022-12-04T08:34:15.978Z,55.42
2022-12-04T08:35:20.304Z,55.48
2022-12-04T08:36:25.406Z,55.47
2022-12-04T08:37:30.245Z,55.51
2022-12-04T08:38:35.276Z,55.27
2022-12-04T08:39:39.881Z,55.43
2022-12-04T08:40:44.742Z,55.03
2022-12-04T08:41:57.212Z,54.87
2022-12-04T08:43:01.814Z,54.41
2022-12-04T08:44:06.115Z,54.38
2022-12-04T08:45:10.472Z,54.27
2022-12-04T08:46:14.985Z,54.34
2022-12-04T08:47:19.284Z,54.25
2022-12-04T08:48:23.537Z,54.26
2022-12-04T08:49:27.754Z,54.13
2022-12-04T08:50:31.990Z,54.18
2022-12-04T08:51:36.222Z,54.35
2022-12-04T08:52:40.440Z,54.42
2022-12-04T08:53:44.907Z,54.43
2022-12-04T08:54:49.145Z,54.54
2022-12-04T08:55:53.387Z,54.75
2022-12-04T08:56:57.676Z,54.52
2022-12-04T08:58:01.987Z,54.64
2022-12-04T08:59:06.586Z,54.72
2022-12-04T09:00:11.283Z,54.83
2022-12-04T09:01:16.277Z,54.82
2022-12-04T09:02:21.147Z,54.92
2022-12-04T09:03:33.052Z,55.06
2022-12-04T09:04:38.592Z,55.12
2022-12-04T09:05:43.725Z,55.01
2022-12-04T09:06:49.548Z,55.17
2022-12-04T09:07:55.757Z,55.17
2022-12-04T09:09:00.617Z,55.13
2022-12-04T09:10:05.836Z,55.15
2022-12-04T09:11:11.402Z,54.91
2022-12-04T09:12:16.760Z,54.93
2022-12-04T09:13:23.059Z,55.09
2022-12-04T09:14:27.842Z,55.26
2022-12-04T09:15:33.423Z,55.05
2022-12-04T09:16:38.692Z,55.11
2022-12-04T09:17:44.129Z,55.14
2022-12-04T09:18:49.250Z,55.22
2022-12-04T09:20:01.102Z,55.27
2022-12-04T09:21:07.347Z,55.18
2022-12-04T09:22:12.918Z,55.2
2022-12-04T09:23:17.953Z,55.2
2022-12-04T09:24:23.035Z,55.2
2022-12-04T09:25:27.963Z,55.23
2022-12-04T09:26:33.010Z,55.24
2022-12-04T09:27:38.570Z,55.23
2022-12-04T09:28:43.611Z,55.28
2022-12-04T09:29:48.792Z,55.3
2022-12-04T09:30:53.173Z,55.34
2022-12-04T09:31:57.881Z,55.36
2022-12-04T09:33:02.612Z,55.38
2022-12-04T09:34:08.110Z,55.35
2022-12-04T09:35:12.459Z,55.25
2022-12-04T09:36:17.114Z,55.23
2022-12-04T09:37:21.849Z,55.44
2022-12-04T09:38:26.380Z,55.27
2022-12-04T09:39:31.161Z,55.29
2022-12-04T09:40:40.032Z,55.25
2022-12-04T09:41:44.592Z,55.13
2022-12-04T09:42:48.831Z,55.08
2022-12-04T09:43:53.073Z,54.9
2022-12-04T09:44:57.893Z,54.8
2022-12-04T09:46:03.206Z,54.75
2022-12-04T09:47:08.481Z,54.53
2022-12-04T09:48:13.378Z,54.38
2022-12-04T09:49:19.391Z,54.42
2022-12-04T09:50:24.916Z,54.37
2022-12-04T09:51:29.264Z,54.38
2022-12-04T09:52:33.526Z,54.34
2022-12-04T09:53:38.158Z,54.31
2022-12-04T09:54:43.231Z,54.34
2022-12-04T09:55:48.677Z,54.27
2022-12-04T09:56:53.486Z,54.37
2022-12-04T09:58:04.108Z,54.41
2022-12-04T09:59:08.752Z,54.45
2022-12-04T10:00:13.581Z,54.44
2022-12-04T10:01:18.108Z,54.57
2022-12-04T10:02:23.750Z,54.58
2022-12-04T10:03:28.879Z,54.46
2022-12-04T10:04:33.174Z,54.49
2022-12-04T10:05:37.500Z,54.84
2022-12-04T10:06:41.863Z,54.9
2022-12-04T10:07:46.257Z,54.54
2022-12-04T10:08:50.687Z,54.59
2022-12-04T10:09:56.204Z,54.52
2022-12-04T10:11:00.628Z,54.53
2022-12-04T10:12:05.122Z,54.55
2022-12-04T10:13:09.419Z,54.64
2022-12-04T10:14:13.734Z,54.69
2022-12-04T10:15:18.001Z,54.75
2022-12-04T10:16:22.575Z,54.83
2022-12-04T10:17:34.280Z,54.73
2022-12-04T10:18:38.611Z,54.73
2022-12-04T10:19:42.843Z,54.83
2022-12-04T10:20:47.098Z,54.87
2022-12-04T10:21:51.307Z,54.82
2022-12-04T10:22:55.561Z,54.88
2022-12-04T10:23:59.838Z,54.89
2022-12-04T10:25:04.096Z,54.89
2022-12-04T10:26:08.320Z,54.99
2022-12-04T10:27:12.577Z,55.02
2022-12-04T10:28:16.808Z,55.04
2022-12-04T10:29:21.017Z,55.01
2022-12-04T10:30:25.388Z,54.96
2022-12-04T10:31:29.877Z,55.12
2022-12-04T10:32:34.159Z,55.19
2022-12-04T10:33:38.368Z,55.06
2022-12-04T10:34:47.505Z,55.21
2022-12-04T10:35:51.727Z,55.18
2022-12-04T10:36:56.226Z,55.23
2022-12-04T10:38:00.780Z,55.25
2022-12-04T10:39:05.062Z,55.33
2022-12-04T10:40:12.403Z,55.35
2022-12-04T10:41:17.329Z,55.25
2022-12-04T10:42:21.614Z,55.33
2022-12-04T10:43:26.041Z,55.41
2022-12-04T10:44:30.347Z,55.4
2022-12-04T10:45:34.813Z,55.39
2022-12-04T10:46:47.656Z,55.37
2022-12-04T10:47:52.547Z,55.4
2022-12-04T10:48:57.229Z,55.38
2022-12-04T10:50:01.819Z,55.42
2022-12-04T10:51:06.412Z,55.26
2022-12-04T10:52:10.809Z,55.38
2022-12-04T10:53:15.996Z,55.13
2022-12-04T10:54:20.260Z,55.05
2022-12-04T10:55:24.480Z,55.05
2022-12-04T10:56:28.865Z,55.02
2022-12-04T10:57:33.245Z,54.92
2022-12-04T10:58:37.926Z,54.91
2022-12-04T10:59:42.595Z,54.87
2022-12-04T11:00:46.833Z,54.87
2022-12-04T11:01:51.413Z,54.87
2022-12-04T11:02:55.990Z,54.94
2022-12-04T11:04:00.391Z,54.91
2022-12-04T11:05:04.925Z,54.87
2022-12-04T11:06:09.528Z,54.84
2022-12-04T11:07:13.762Z,54.98
2022-12-04T11:08:22.041Z,54.97
2022-12-04T11:09:26.405Z,55.11
2022-12-04T11:10:30.858Z,55.11
2022-12-04T11:11:35.266Z,55.14
2022-12-04T11:12:39.722Z,55.12
2022-12-04T11:13:43.971Z,54.92
2022-12-04T11:14:49.383Z,55.04
2022-12-04T11:15:53.898Z,55.09
2022-12-04T11:16:58.250Z,55.08
2022-12-04T11:18:02.493Z,55.11
2022-12-04T11:19:06.763Z,54.62
2022-12-04T11:20:11.019Z,54.34
2022-12-04T11:21:15.239Z,54.35
2022-12-04T11:22:19.593Z,54.41
2022-12-04T11:23:23.825Z,54.48
2022-12-04T11:24:28.095Z,54.54
2022-12-04T11:25:32.342Z,54.45
2022-12-04T11:26:36.568Z,54.44
2022-12-04T11:27:40.799Z,54.55
2022-12-04T11:28:45.345Z,54.47
2022-12-04T11:29:49.603Z,54.56
2022-12-04T11:30:53.885Z,54.54
2022-12-04T11:32:07.348Z,54.64
2022-12-04T11:33:11.950Z,54.66
2022-12-04T11:34:16.365Z,54.75
2022-12-04T11:35:21.242Z,54.74
2022-12-04T11:36:25.490Z,54.84
2022-12-04T11:37:29.722Z,54.94
2022-12-04T11:38:33.944Z,54.92
2022-12-04T11:39:38.251Z,54.91
2022-12-04T11:40:42.541Z,54.95
2022-12-04T11:41:46.816Z,55.01
2022-12-04T11:42:51.040Z,55.12
2022-12-04T11:44:02.143Z,55.03
2022-12-04T11:45:06.567Z,55.07
2022-12-04T11:46:10.959Z,55.1
2022-12-04T11:47:15.434Z,55.14
2022-12-04T11:48:19.679Z,55.13
2022-12-04T11:49:23.941Z,55.22
2022-12-04T11:50:28.182Z,55.18
2022-12-04T11:51:32.404Z,55.31
2022-12-04T11:52:36.626Z,55.34
2022-12-04T11:53:40.865Z,55.33
2022-12-04T11:54:45.068Z,55.41
2022-12-04T11:55:49.281Z,55.46
2022-12-04T11:56:53.516Z,55.47
2022-12-04T11:57:57.749Z,55.52
2022-12-04T11:59:02.016Z,55.46
2022-12-04T12:00:06.233Z,55.4
2022-12-04T12:01:10.470Z,55.34
2022-12-04T12:02:15.161Z,55.36
2022-12-04T12:03:20.005Z,55.21
2022-12-04T12:04:24.357Z,55.12
2022-12-04T12:05:28.698Z,55.09
2022-12-04T12:06:32.948Z,55.02
2022-12-04T12:07:37.343Z,54.92
2022-12-04T12:08:41.612Z,54.87
2022-12-04T12:09:45.959Z,54.93
2022-12-04T12:10:50.198Z,54.92
2022-12-04T12:11:54.430Z,54.91
2022-12-04T12:12:58.923Z,54.89
2022-12-04T12:14:03.229Z,54.9
2022-12-04T12:15:07.459Z,54.88
2022-12-04T12:16:11.956Z,54.88
2022-12-04T12:17:16.480Z,54.99
2022-12-04T12:18:24.191Z,54.99
2022-12-04T12:19:28.578Z,55
2022-12-04T12:20:33.170Z,54.98
2022-12-04T12:21:37.398Z,55.07
2022-12-04T12:22:41.626Z,54.98
2022-12-04T12:23:46.050Z,55.15
2022-12-04T12:24:53.500Z,55.12
2022-12-04T12:25:57.840Z,55.15
2022-12-04T12:27:02.092Z,55.11
2022-12-04T12:28:06.387Z,55.15
2022-12-04T12:29:10.631Z,55.12
2022-12-04T12:30:14.950Z,55.26
2022-12-04T12:31:19.443Z,55.26
2022-12-04T12:32:23.780Z,55.22
2022-12-04T12:33:27.995Z,55.18
2022-12-04T12:34:32.251Z,55.25
2022-12-04T12:35:36.490Z,55.16
2022-12-04T12:36:45.663Z,55.24
2022-12-04T12:37:53.158Z,55.24
2022-12-04T12:38:57.423Z,55.3
2022-12-04T12:40:01.685Z,55.33
2022-12-04T12:41:05.906Z,55.23
2022-12-04T12:42:10.144Z,55.25
2022-12-04T12:43:14.626Z,55.22
2022-12-04T12:44:18.889Z,55.27
2022-12-04T12:45:23.261Z,55.42
2022-12-04T12:46:27.837Z,55.18
2022-12-04T12:47:32.121Z,54.96
2022-12-04T12:48:36.359Z,54.86
2022-12-04T12:49:40.572Z,54.11
2022-12-04T12:50:44.810Z,54.25
2022-12-04T12:51:49.021Z,54.16
2022-12-04T12:52:53.227Z,54.08
2022-12-04T12:53:57.485Z,54.12
2022-12-04T12:55:01.708Z,53.98
2022-12-04T12:56:05.927Z,54.11
2022-12-04T12:57:10.173Z,54.11
2022-12-04T12:58:14.421Z,54.02
2022-12-04T12:59:18.648Z,54.08
2022-12-04T13:00:22.886Z,54.06
2022-12-04T13:01:27.356Z,54.03
2022-12-04T13:02:31.961Z,54.17
2022-12-04T13:03:36.287Z,54.14
2022-12-04T13:04:40.565Z,54.08
2022-12-04T13:05:45.125Z,54.11
2022-12-04T13:06:49.348Z,54.16
2022-12-04T13:07:53.740Z,54.1
2022-12-04T13:08:58.021Z,54.15
2022-12-04T13:10:02.253Z,54.12
2022-12-04T13:11:06.472Z,54.09
2022-12-04T13:12:10.722Z,54.06
2022-12-04T13:13:15.037Z,53.94
2022-12-04T13:14:19.284Z,53.94
2022-12-04T13:15:23.488Z,53.83
2022-12-04T13:16:27.855Z,53.67
2022-12-04T13:17:32.123Z,53.68
2022-12-04T13:18:36.387Z,53.47
2022-12-04T13:19:40.605Z,53.49
2022-12-04T13:20:44.832Z,53.46
2022-12-04T13:21:49.064Z,53.48
2022-12-04T13:22:53.310Z,53.43
2022-12-04T13:23:57.552Z,53.49
2022-12-04T13:25:01.916Z,53.4
2022-12-04T13:26:06.154Z,53.43
2022-12-04T13:27:10.401Z,53.41
2022-12-04T13:28:14.651Z,53.3
2022-12-04T13:29:18.896Z,53.55
2022-12-04T13:30:23.267Z,53.77
2022-12-04T13:31:27.901Z,53.75
2022-12-04T13:32:32.153Z,53.86
2022-12-04T13:33:36.385Z,53.76
2022-12-04T13:34:40.617Z,53.78
2022-12-04T13:35:44.844Z,53.77
2022-12-04T13:36:49.088Z,53.79
2022-12-04T13:37:53.282Z,53.98
2022-12-04T13:39:00.318Z,53.97
2022-12-04T13:40:04.516Z,54.06
2022-12-04T13:41:08.757Z,53.98
2022-12-04T13:42:13.028Z,54.11
2022-12-04T13:43:17.245Z,54.25
2022-12-04T13:44:21.437Z,54.23
2022-12-04T13:45:25.654Z,54.24
2022-12-04T13:46:30.224Z,54.27
2022-12-04T13:47:34.518Z,54.27
2022-12-04T13:48:38.745Z,54.49
2022-12-04T13:49:42.997Z,54.45
2022-12-04T13:50:47.254Z,54.61
2022-12-04T13:51:53.962Z,54.52
2022-12-04T13:52:58.172Z,54.58
2022-12-04T13:54:02.414Z,54.43